createdAt,value
2018-12-21T00:01:44.303Z,91.52
2018-12-21T00:06:39.106Z,91.39
2018-12-21T00:11:33.855Z,92.09
2018-12-21T00:16:28.573Z,91.22
2018-12-21T00:21:23.247Z,91.06
2018-12-21T00:31:47.797Z,91.22
2018-12-21T00:36:47.989Z,92.23
2018-12-21T00:41:41.901Z,91.75
2018-12-21T00:46:41.668Z,92.54
2018-12-21T00:51:36.347Z,91.87
2018-12-21T00:56:31.003Z,92.28
2018-12-21T01:01:25.905Z,91.94
2018-12-21T01:06:20.719Z,92.08
2018-12-21T01:11:15.525Z,92.39
2018-12-21T01:16:10.148Z,91.81
2018-12-21T01:21:07.042Z,92.24
2018-12-21T01:26:01.715Z,92.10
2018-12-21T01:30:56.351Z,91.88
2018-12-21T01:35:51.072Z,91.72
2018-12-21T01:40:45.908Z,91.83
2018-12-21T01:45:40.551Z,92.02
2018-12-21T01:50:35.216Z,92.47
2018-12-21T01:55:29.809Z,91.98
2018-12-21T02:00:24.471Z,92.13
2018-12-21T02:05:19.120Z,92.06
2018-12-21T02:10:13.869Z,91.36
2018-12-21T02:15:08.602Z,91.26
2018-12-21T02:20:03.285Z,90.71
2018-12-21T02:24:57.920Z,91.75
2018-12-21T02:29:52.492Z,92.03
2018-12-21T02:34:47.089Z,92.54
2018-12-21T02:39:41.634Z,91.76
2018-12-21T02:44:36.268Z,92.54
2018-12-21T02:49:30.862Z,93.06
2018-12-21T02:54:25.453Z,92.79
2018-12-21T02:59:20.046Z,92.23
2018-12-21T03:04:14.805Z,93.17
2018-12-21T03:09:11.119Z,92.49
2018-12-21T03:14:06.127Z,92.73
2018-12-21T03:19:00.743Z,91.24
2018-12-21T03:23:55.344Z,90.91
2018-12-21T03:28:50.978Z,91.04
2018-12-21T03:33:45.613Z,90.89
2018-12-21T03:38:40.231Z,91.66
2018-12-21T03:43:35.106Z,90.75
2018-12-21T03:48:29.715Z,90.77
2018-12-21T03:53:24.340Z,91.47
2018-12-21T03:58:19.215Z,91.77
2018-12-21T04:03:14.048Z,91.18
2018-12-21T04:08:08.702Z,91.07
2018-12-21T04:13:03.381Z,90.95
2018-12-21T04:17:58.083Z,89.95
2018-12-21T04:22:52.895Z,89.31
2018-12-21T04:27:47.550Z,88.59
2018-12-21T04:32:42.207Z,88.35
2018-12-21T04:37:36.919Z,88.70
2018-12-21T04:42:31.606Z,87.87
2018-12-21T04:47:26.305Z,88.18
2018-12-21T04:52:20.913Z,87.69
2018-12-21T04:57:15.573Z,88.58
2018-12-21T05:02:10.180Z,88.78
2018-12-21T05:07:12.206Z,86.47
2018-12-21T05:12:01.394Z,85.78
2018-12-21T05:16:55.999Z,85.53
2018-12-21T05:21:50.726Z,85.74
2018-12-21T05:26:45.423Z,84.47
2018-12-21T05:31:40.202Z,84.80
2018-12-21T05:36:34.821Z,84.79
2018-12-21T05:41:29.618Z,85.28
2018-12-21T05:46:24.223Z,83.09
2018-12-21T05:51:18.971Z,82.88
2018-12-21T05:56:14.680Z,80.99
2018-12-21T06:01:09.376Z,81.14
2018-12-21T06:06:04.191Z,79.43
2018-12-21T06:10:58.851Z,79.94
2018-12-21T06:15:53.451Z,80.00
2018-12-21T06:20:48.237Z,84.35
2018-12-21T06:25:42.837Z,86.37
2018-12-21T06:30:37.416Z,86.84
2018-12-21T06:35:32.042Z,85.55
2018-12-21T06:40:26.623Z,85.92
2018-12-21T06:45:21.264Z,84.54
2018-12-21T06:50:15.925Z,84.07
2018-12-21T07:00:29.509Z,84.08
2018-12-21T07:05:24.147Z,83.35
2018-12-21T07:10:18.804Z,83.01
2018-12-21T07:15:13.843Z,84.74
2018-12-21T07:20:11.838Z,85.16
2018-12-21T07:25:10.397Z,82.67
2018-12-21T07:30:07.208Z,80.16
2018-12-21T07:35:01.925Z,80.71
2018-12-21T07:40:03.147Z,82.24
2018-12-21T07:44:57.795Z,82.50
2018-12-21T07:49:52.378Z,85.39
2018-12-21T07:54:47.033Z,88.32
2018-12-21T07:59:41.865Z,92.69
2018-12-21T08:04:37.026Z,95.54
2018-12-21T08:09:31.616Z,97.37
2018-12-21T08:14:26.299Z,99.59
2018-12-21T08:19:21.184Z,100.00
2018-12-21T08:24:15.853Z,100.00
2018-12-21T08:29:10.493Z,100.00
2018-12-21T08:34:05.253Z,100.00
2018-12-21T08:38:59.915Z,100.00
2018-12-21T08:43:54.576Z,99.89
2018-12-21T08:48:49.183Z,100.00
2018-12-21T08:53:43.826Z,100.00
2018-12-21T08:58:38.478Z,100.00
2018-12-21T09:03:33.159Z,100.00
2018-12-21T09:08:27.981Z,100.00
2018-12-21T09:14:47.013Z,100.00
2018-12-21T09:30:41.430Z,100.00
2018-12-21T09:36:03.861Z,100.00
2018-12-21T09:41:04.538Z,100.00
2018-12-21T09:45:59.610Z,100.00
2018-12-21T09:50:54.417Z,100.00
2018-12-21T09:55:49.150Z,100.00
2018-12-21T10:00:43.941Z,100.00
2018-12-21T10:05:38.744Z,100.00
2018-12-21T10:10:33.626Z,100.00
2018-12-21T10:15:28.525Z,100.00
2018-12-21T10:20:23.658Z,100.00
2018-12-21T10:25:18.656Z,100.00
2018-12-21T10:30:13.981Z,100.00
2018-12-21T10:35:09.184Z,100.00
2018-12-21T10:40:04.281Z,100.00
2018-12-21T10:44:59.575Z,100.00
2018-12-21T10:49:54.665Z,100.00
2018-12-21T10:54:49.696Z,100.00
2018-12-21T10:59:44.638Z,100.00
2018-12-21T11:04:39.630Z,100.00
2018-12-21T11:09:34.372Z,100.00
2018-12-21T11:14:29.294Z,100.00
2018-12-21T11:19:24.316Z,100.00
2018-12-21T11:24:19.149Z,100.00
2018-12-21T11:29:13.924Z,100.00
2018-12-21T11:34:08.904Z,100.00
2018-12-21T11:39:05.722Z,100.00
2018-12-21T11:44:00.687Z,100.00
2018-12-21T11:48:55.892Z,100.00
2018-12-21T11:53:50.654Z,100.00
2018-12-21T11:58:45.487Z,100.00
2018-12-21T12:03:40.376Z,100.00
2018-12-21T12:08:35.101Z,100.00
2018-12-21T12:13:29.926Z,100.00
2018-12-21T12:18:24.920Z,100.00
2018-12-21T12:23:20.064Z,100.00
2018-12-21T12:28:14.824Z,100.00
2018-12-21T12:33:09.544Z,100.00
2018-12-21T12:38:04.451Z,100.00
2018-12-21T12:42:59.257Z,100.00
2018-12-21T12:47:56.920Z,100.00
2018-12-21T12:52:51.944Z,100.00
2018-12-21T12:57:50.101Z,100.00
2018-12-21T13:02:46.408Z,100.00
2018-12-21T13:07:41.206Z,100.00
2018-12-21T13:12:35.981Z,100.00
2018-12-21T13:17:30.850Z,100.00
2018-12-21T13:22:25.639Z,100.00
2018-12-21T13:27:20.816Z,100.00
2018-12-21T13:32:15.668Z,100.00
2018-12-21T13:37:10.486Z,100.00
2018-12-21T13:42:05.288Z,100.00
2018-12-21T13:47:01.114Z,100.00
2018-12-21T13:51:56.609Z,100.00
2018-12-21T13:56:51.461Z,100.00
2018-12-21T14:01:46.539Z,100.00
2018-12-21T14:06:41.290Z,100.00
2018-12-21T14:11:36.397Z,100.00
2018-12-21T14:16:31.208Z,100.00
2018-12-21T14:21:26.015Z,100.00
2018-12-21T14:26:22.086Z,100.00
2018-12-21T14:31:16.909Z,100.00
2018-12-21T14:51:42.795Z,100.00
2018-12-21T15:40:02.909Z,100.00
2018-12-21T15:45:06.277Z,100.00
2018-12-21T15:50:28.495Z,100.00
2018-12-21T15:55:41.985Z,100.00
2018-12-21T16:00:40.200Z,100.00
2018-12-21T16:10:55.893Z,100.00
2018-12-21T16:15:51.522Z,100.00
2018-12-21T16:20:46.504Z,100.00
2018-12-21T16:26:03.503Z,100.00
2018-12-21T16:30:58.500Z,100.00
2018-12-21T16:35:53.474Z,100.00
2018-12-21T16:40:49.170Z,100.00
2018-12-21T16:45:44.255Z,100.00
2018-12-21T16:50:42.553Z,100.00
2018-12-21T16:55:37.989Z,100.00
2018-12-21T17:05:59.351Z,100.00
2018-12-21T17:10:55.590Z,100.00
2018-12-21T17:21:08.457Z,100.00
2018-12-21T17:26:21.015Z,100.00
2018-12-21T17:31:25.335Z,100.00
2018-12-21T18:42:45.767Z,100.00
2018-12-21T18:47:45.792Z,100.00
2018-12-21T18:52:53.488Z,100.00
2018-12-21T18:58:20.401Z,100.00
2018-12-21T19:03:26.326Z,100.00
2018-12-21T19:15:37.964Z,100.00
2018-12-21T19:21:14.883Z,100.00
2018-12-21T19:26:36.033Z,100.00
2018-12-21T19:31:31.987Z,100.00
2018-12-21T19:37:14.855Z,100.00
2018-12-21T19:48:01.062Z,100.00
2018-12-21T20:10:49.662Z,100.00
2018-12-21T20:48:36.325Z,100.00
2018-12-21T20:59:41.707Z,100.00
2018-12-21T21:04:47.007Z,100.00
2018-12-21T21:09:42.358Z,100.00
2018-12-21T21:14:55.003Z,100.00
2018-12-21T21:20:07.541Z,100.00
2018-12-21T21:25:21.804Z,100.00
2018-12-21T21:36:03.065Z,100.00
2018-12-21T21:41:00.248Z,100.00
2018-12-21T21:46:05.654Z,100.00
2018-12-21T21:51:10.714Z,100.00
2018-12-21T22:02:02.803Z,100.00
2018-12-21T22:07:06.020Z,100.00
2018-12-21T22:12:21.597Z,100.00
2018-12-21T22:17:40.050Z,100.00
2018-12-21T22:43:48.219Z,100.00
2018-12-21T22:48:50.036Z,100.00
2018-12-21T22:59:34.529Z,100.00
2018-12-21T23:09:53.278Z,100.00
2018-12-21T23:15:04.720Z,100.00
2018-12-21T23:25:36.110Z,100.00
2018-12-21T23:30:39.318Z,100.00
2018-12-21T23:35:52.754Z,100.00
2018-12-21T23:41:06.122Z,100.00
2018-12-21T23:51:23.435Z,100.00
2018-12-21T23:56:23.890Z,100.00
